Time;durP1;ratioP1;P1;durP2;ratioP2;P2;SDS_P1;SDS_P2;PMS_P1;PMS_P2;Temp;Humidity;BMP_temperature;BMP_pressure;BME280_temperature;BME280_humidity;BME280_pressure;Samples;Min_cycle;Max_cycle;Signal;HPM_P1;HPM_P2
2022/06/25 00:00:49;;;;;;;11.05;6.80;;;;;;;;;;5037156;28;20041;-68
2022/06/25 00:03:16;;;;;;;10.45;6.72;;;;;;;;;;5054812;28;20067;-66
2022/06/25 00:05:44;;;;;;;10.82;6.43;;;;;;;;;;5037332;28;20393;-66
2022/06/25 00:08:12;;;;;;;8.82;6.47;;;;;;;;;;5036722;28;20491;-66
2022/06/25 00:10:39;;;;;;;12.98;6.43;;;;;;;;;;5054550;28;20071;-66
2022/06/25 00:13:07;;;;;;;13.70;6.13;;;;;;;;;;5054420;28;20063;-66
2022/06/25 00:15:34;;;;;;;10.52;6.03;;;;;;;;;;5054512;28;20048;-66
2022/06/25 00:18:02;;;;;;;7.78;5.80;;;;;;;;;;5054293;28;20040;-66
2022/06/25 00:20:29;;;;;;;17.13;5.85;;;;;;;;;;5054261;28;20518;-66
2022/06/25 00:22:57;;;;;;;10.70;5.65;;;;;;;;;;5054288;28;20107;-66
2022/06/25 00:25:24;;;;;;;10.88;5.90;;;;;;;;;;5036506;28;20056;-66
2022/06/25 00:27:52;;;;;;;9.15;5.15;;;;;;;;;;5054267;28;20108;-66
2022/06/25 00:30:19;;;;;;;12.73;5.72;;;;;;;;;;5054275;28;20037;-66
2022/06/25 00:32:47;;;;;;;8.77;5.30;;;;;;;;;;5036543;28;20045;-66
2022/06/25 00:35:14;;;;;;;9.23;5.18;;;;;;;;;;5036228;28;20048;-66
2022/06/25 00:37:43;;;;;;;9.38;4.97;;;;;;;;;;5036221;28;20088;-66
2022/06/25 00:40:11;;;;;;;8.60;5.43;;;;;;;;;;5019793;28;20048;-66
2022/06/25 00:42:41;;;;;;;10.82;5.50;;;;;;;;;;5036108;28;20120;-66
2022/06/25 00:45:09;;;;;;;11.02;5.97;;;;;;;;;;5036059;28;20065;-66
2022/06/25 00:47:36;;;;;;;10.85;5.45;;;;;;;;;;5054113;28;20043;-66
2022/06/25 00:50:04;;;;;;;11.27;4.85;;;;;;;;;;5053813;28;20510;-66
2022/06/25 00:52:35;;;;;;;8.95;5.20;;;;;;;;;;5036066;28;20063;-66
2022/06/25 00:55:10;;;;;;;10.65;5.43;;;;;;;;;;5035819;28;20045;-66
2022/06/25 00:57:39;;;;;;;9.10;5.30;;;;;;;;;;5019546;28;20048;-66
2022/06/25 01:00:20;;;;;;;9.57;5.38;;;;;;;;;;5035745;28;20325;-66
2022/06/25 01:02:47;;;;;;;9.02;5.20;;;;;;;;;;5035686;28;20079;-66
2022/06/25 01:05:16;;;;;;;8.80;5.30;;;;;;;;;;5035952;28;20055;-66
2022/06/25 01:07:45;;;;;;;9.25;5.10;;;;;;;;;;5052891;28;20573;-66
2022/06/25 01:10:13;;;;;;;12.75;5.50;;;;;;;;;;5053467;28;20043;-66
2022/06/25 01:12:41;;;;;;;13.35;6.03;;;;;;;;;;5035622;28;20503;-66
2022/06/25 01:15:14;;;;;;;11.13;5.75;;;;;;;;;;5035442;28;20045;-66
2022/06/25 01:17:46;;;;;;;13.02;5.20;;;;;;;;;;5019110;28;20049;-66
2022/06/25 01:20:14;;;;;;;10.45;5.40;;;;;;;;;;5035547;28;20410;-66
2022/06/25 01:22:42;;;;;;;8.60;5.55;;;;;;;;;;5035130;28;20402;-66
2022/06/25 01:25:10;;;;;;;11.50;5.10;;;;;;;;;;5053735;28;20433;-66
2022/06/25 01:27:38;;;;;;;13.27;5.30;;;;;;;;;;5052970;28;20045;-66
2022/06/25 01:30:06;;;;;;;10.80;6.03;;;;;;;;;;5035210;28;20069;-66
2022/06/25 01:32:34;;;;;;;8.32;5.68;;;;;;;;;;5035059;28;20055;-66
2022/06/25 01:35:02;;;;;;;10.60;5.93;;;;;;;;;;5035068;28;20396;-66
2022/06/25 01:37:29;;;;;;;10.63;6.03;;;;;;;;;;5035425;28;20067;-66
2022/06/25 01:40:01;;;;;;;9.75;5.90;;;;;;;;;;5034723;28;20056;-66
2022/06/25 01:45:14;;;;;;;13.52;6.10;;;;;;;;;;5035025;28;20045;-66
2022/06/25 01:47:42;;;;;;;11.35;6.25;;;;;;;;;;5052809;28;20055;-66
2022/06/25 01:50:10;;;;;;;14.07;5.65;;;;;;;;;;5035051;28;20045;-66
2022/06/25 01:52:38;;;;;;;9.65;6.20;;;;;;;;;;5034697;28;20490;-66
2022/06/25 01:55:06;;;;;;;11.82;6.50;;;;;;;;;;5035182;28;20047;-66
2022/06/25 01:57:37;;;;;;;12.20;6.65;;;;;;;;;;5052567;28;20063;-66
2022/06/25 02:00:07;;;;;;;10.60;5.80;;;;;;;;;;5034802;28;20064;-67
2022/06/25 02:02:41;;;;;;;9.50;6.05;;;;;;;;;;5052478;28;20041;-66
2022/06/25 02:05:10;;;;;;;12.05;5.43;;;;;;;;;;5034958;28;20048;-67
2022/06/25 02:07:37;;;;;;;13.93;6.35;;;;;;;;;;5034584;28;20033;-67
2022/06/25 02:10:06;;;;;;;12.95;6.13;;;;;;;;;;5052605;28;20053;-68
2022/06/25 02:12:33;;;;;;;10.50;5.90;;;;;;;;;;5052220;28;20112;-66
2022/06/25 02:15:02;;;;;;;9.77;6.28;;;;;;;;;;5034650;28;20068;-67
2022/06/25 02:17:29;;;;;;;14.55;6.03;;;;;;;;;;5034547;28;20401;-66
2022/06/25 02:19:58;;;;;;;8.50;5.97;;;;;;;;;;5034557;28;20502;-66
2022/06/25 02:22:26;;;;;;;11.65;6.60;;;;;;;;;;5034537;28;20041;-67
2022/06/25 02:24:54;;;;;;;8.32;5.90;;;;;;;;;;5034811;28;20061;-69
2022/06/25 02:27:22;;;;;;;13.18;6.95;;;;;;;;;;5052234;28;20045;-67
2022/06/25 02:29:49;;;;;;;13.00;5.93;;;;;;;;;;5034539;28;20044;-67
2022/06/25 02:32:17;;;;;;;15.45;6.40;;;;;;;;;;5034289;28;20053;-68
2022/06/25 02:34:44;;;;;;;14.80;6.70;;;;;;;;;;5034367;28;20041;-67
2022/06/25 02:37:12;;;;;;;9.70;6.45;;;;;;;;;;5034368;28;20047;-66
2022/06/25 02:39:40;;;;;;;12.10;7.00;;;;;;;;;;5030930;28;20085;-66
2022/06/25 02:42:07;;;;;;;11.50;6.75;;;;;;;;;;5031250;28;20511;-66
2022/06/25 02:44:35;;;;;;;18.92;7.50;;;;;;;;;;5030996;28;20396;-66
2022/06/25 02:47:02;;;;;;;9.73;6.47;;;;;;;;;;5031166;28;20036;-66
2022/06/25 02:49:46;;;;;;;13.23;6.82;;;;;;;;;;5030935;28;20054;-66
2022/06/25 02:52:13;;;;;;;12.13;7.28;;;;;;;;;;5014791;28;20054;-67
2022/06/25 02:54:41;;;;;;;12.38;7.13;;;;;;;;;;5030739;28;20042;-67
2022/06/25 02:59:55;;;;;;;14.65;6.90;;;;;;;;;;5030810;28;20503;-66
2022/06/25 03:02:23;;;;;;;16.95;7.57;;;;;;;;;;5031067;28;20107;-66
2022/06/25 03:04:51;;;;;;;16.25;7.20;;;;;;;;;;5030526;28;20080;-66
2022/06/25 03:07:19;;;;;;;11.70;7.47;;;;;;;;;;5014708;28;20579;-67
2022/06/25 03:09:47;;;;;;;14.85;7.22;;;;;;;;;;5014339;28;20400;-67
2022/06/25 03:12:15;;;;;;;16.20;6.90;;;;;;;;;;5030619;28;20045;-67
2022/06/25 03:14:50;;;;;;;17.77;7.45;;;;;;;;;;5030724;28;20038;-67
2022/06/25 03:17:20;;;;;;;15.43;7.85;;;;;;;;;;5014799;28;20411;-67
2022/06/25 03:20:06;;;;;;;13.05;7.90;;;;;;;;;;5032220;28;20052;-67
2022/06/25 03:22:43;;;;;;;12.50;7.60;;;;;;;;;;5030813;28;20073;-67
2022/06/25 03:25:10;;;;;;;11.00;7.28;;;;;;;;;;5030359;28;20474;-67
2022/06/25 03:27:38;;;;;;;16.75;7.75;;;;;;;;;;5030532;28;20377;-67
2022/06/25 03:30:12;;;;;;;11.27;7.13;;;;;;;;;;5031663;28;20124;-67
2022/06/25 03:32:41;;;;;;;14.68;7.72;;;;;;;;;;5034034;28;20053;-67
2022/06/25 03:35:27;;;;;;;13.10;8.23;;;;;;;;;;5032777;28;20088;-67
2022/06/25 03:38:09;;;;;;;14.15;7.80;;;;;;;;;;5033195;28;20403;-67
2022/06/25 03:40:37;;;;;;;12.98;7.03;;;;;;;;;;5033840;28;20582;-67
2022/06/25 03:43:07;;;;;;;17.80;7.53;;;;;;;;;;5033986;28;20068;-67
2022/06/25 03:45:38;;;;;;;17.25;10.35;;;;;;;;;;5034897;28;20029;-67
2022/06/25 03:48:07;;;;;;;11.50;6.82;;;;;;;;;;5033553;28;20053;-67
2022/06/25 03:50:46;;;;;;;16.65;7.75;;;;;;;;;;5033541;28;20034;-67
2022/06/25 03:53:14;;;;;;;12.85;6.90;;;;;;;;;;5035107;28;20045;-67
2022/06/25 03:55:42;;;;;;;12.13;6.30;;;;;;;;;;5033759;28;20042;-67
2022/06/25 03:58:21;;;;;;;9.43;6.55;;;;;;;;;;5033772;28;20045;-67
2022/06/25 04:00:48;;;;;;;15.13;7.60;;;;;;;;;;5033621;28;20065;-67
2022/06/25 04:03:16;;;;;;;9.40;6.28;;;;;;;;;;5033653;28;20047;-67
2022/06/25 04:06:07;;;;;;;9.65;6.20;;;;;;;;;;5029148;28;20076;-67
2022/06/25 04:08:41;;;;;;;8.57;5.70;;;;;;;;;;5033614;28;20510;-67
2022/06/25 04:11:12;;;;;;;8.93;5.50;;;;;;;;;;5024252;28;20053;-67
2022/06/25 04:13:44;;;;;;;13.23;6.60;;;;;;;;;;5015322;28;20083;-67
2022/06/25 04:16:13;;;;;;;12.98;6.10;;;;;;;;;;5026731;28;20049;-67
2022/06/25 04:18:41;;;;;;;12.95;5.40;;;;;;;;;;5012179;28;20046;-67
2022/06/25 04:21:10;;;;;;;8.27;5.00;;;;;;;;;;5012953;28;20129;-66
2022/06/25 04:23:38;;;;;;;11.63;5.55;;;;;;;;;;5010838;28;20408;-67
2022/06/25 04:26:09;;;;;;;7.40;5.32;;;;;;;;;;5003544;28;20074;-67
2022/06/25 04:31:49;;;;;;;11.40;5.53;;;;;;;;;;5009367;28;20136;-67
2022/06/25 04:34:36;;;;;;;16.10;5.65;;;;;;;;;;5013535;28;20496;-67
2022/06/25 04:37:04;;;;;;;12.75;6.18;;;;;;;;;;5012621;28;20042;-67
2022/06/25 04:39:33;;;;;;;10.50;5.65;;;;;;;;;;5021417;28;20057;-67
2022/06/25 04:42:00;;;;;;;10.98;6.10;;;;;;;;;;5031869;28;20048;-66
2022/06/25 04:44:30;;;;;;;11.07;6.50;;;;;;;;;;5018622;28;20056;-67
2022/06/25 04:46:58;;;;;;;8.00;6.05;;;;;;;;;;5012964;28;20046;-67
2022/06/25 04:49:38;;;;;;;10.63;5.88;;;;;;;;;;5013258;28;20056;-68
2022/06/25 04:52:05;;;;;;;10.70;6.65;;;;;;;;;;5012842;28;20752;-67
2022/06/25 04:54:34;;;;;;;14.77;5.38;;;;;;;;;;5013033;28;20049;-67
2022/06/25 04:57:08;;;;;;;10.07;4.80;;;;;;;;;;5014956;28;20060;-68
2022/06/25 04:59:48;;;;;;;9.85;4.10;;;;;;;;;;5011880;28;20057;-67
2022/06/25 05:02:22;;;;;;;9.05;4.43;;;;;;;;;;5013027;28;20080;-67
2022/06/25 05:04:55;;;;;;;8.27;4.63;;;;;;;;;;5029173;28;20054;-67
2022/06/25 05:07:25;;;;;;;6.72;4.15;;;;;;;;;;5012622;28;20100;-67
2022/06/25 05:09:52;;;;;;;7.68;4.18;;;;;;;;;;5029019;28;20049;-67
2022/06/25 05:15:07;;;;;;;9.85;3.90;;;;;;;;;;5012581;28;20558;-67
2022/06/25 05:17:36;;;;;;;6.28;3.55;;;;;;;;;;5013702;28;20129;-67
2022/06/25 05:20:06;;;;;;;6.72;3.75;;;;;;;;;;5012546;28;20093;-67
2022/06/25 05:22:34;;;;;;;10.52;4.97;;;;;;;;;;5013593;28;20034;-67
2022/06/25 05:25:01;;;;;;;8.13;4.05;;;;;;;;;;5012527;28;20049;-67
2022/06/25 05:27:29;;;;;;;13.90;5.32;;;;;;;;;;5012392;28;20046;-66
2022/06/25 05:29:57;;;;;;;7.18;3.90;;;;;;;;;;5012252;28;20046;-67
2022/06/25 05:32:25;;;;;;;7.53;3.65;;;;;;;;;;5012176;28;20435;-66
2022/06/25 05:34:54;;;;;;;5.00;3.20;;;;;;;;;;5012155;28;20048;-66
2022/06/25 05:37:22;;;;;;;8.15;3.10;;;;;;;;;;5012251;28;20061;-66
2022/06/25 05:39:49;;;;;;;6.85;3.30;;;;;;;;;;5034191;28;20099;-66
2022/06/25 05:42:17;;;;;;;6.97;3.65;;;;;;;;;;5052885;28;20510;-69
2022/06/25 05:44:44;;;;;;;7.55;3.75;;;;;;;;;;5035132;28;20449;-66
2022/06/25 05:47:12;;;;;;;5.13;3.28;;;;;;;;;;5052832;28;20155;-67
2022/06/25 05:49:39;;;;;;;8.23;3.50;;;;;;;;;;5052711;28;20047;-67
2022/06/25 05:52:07;;;;;;;6.25;3.50;;;;;;;;;;5052649;28;20091;-67
2022/06/25 05:54:34;;;;;;;5.57;3.20;;;;;;;;;;5052498;28;20047;-66
2022/06/25 05:57:02;;;;;;;7.25;4.00;;;;;;;;;;5052669;28;20041;-66
2022/06/25 05:59:29;;;;;;;6.05;3.00;;;;;;;;;;5052695;28;20513;-65
2022/06/25 06:01:57;;;;;;;5.43;3.40;;;;;;;;;;5052679;28;20049;-71
2022/06/25 06:04:24;;;;;;;10.30;4.65;;;;;;;;;;5052507;28;20494;-66
2022/06/25 06:06:52;;;;;;;9.35;3.55;;;;;;;;;;5052682;28;20063;-66
2022/06/25 06:09:20;;;;;;;5.70;3.13;;;;;;;;;;5052494;28;20071;-66
2022/06/25 06:11:47;;;;;;;5.70;3.65;;;;;;;;;;5052458;28;20083;-66
2022/06/25 06:14:15;;;;;;;7.40;3.63;;;;;;;;;;5052474;28;20084;-65
2022/06/25 06:16:42;;;;;;;6.30;3.38;;;;;;;;;;5034511;28;20041;-66
2022/06/25 06:19:10;;;;;;;4.00;2.85;;;;;;;;;;5034913;28;20033;-68
2022/06/25 06:21:37;;;;;;;4.88;3.53;;;;;;;;;;5052216;28;20470;-67
2022/06/25 06:24:06;;;;;;;8.02;2.75;;;;;;;;;;5052434;28;20045;-67
2022/06/25 06:26:34;;;;;;;5.50;2.65;;;;;;;;;;5052413;28;20029;-67
2022/06/25 06:29:02;;;;;;;5.35;2.78;;;;;;;;;;5052180;28;20041;-68
2022/06/25 06:31:30;;;;;;;5.38;3.33;;;;;;;;;;5058437;28;20136;-68
2022/06/25 06:33:58;;;;;;;6.30;4.30;;;;;;;;;;5054500;28;20091;-68
2022/06/25 06:36:25;;;;;;;5.75;2.70;;;;;;;;;;5065064;28;20047;-67
2022/06/25 06:38:53;;;;;;;6.07;3.65;;;;;;;;;;5052607;28;20057;-67
2022/06/25 06:41:20;;;;;;;4.43;3.30;;;;;;;;;;5063085;28;20068;-67
2022/06/25 06:43:48;;;;;;;8.38;4.00;;;;;;;;;;5050167;28;20041;-68
2022/06/25 06:46:15;;;;;;;4.47;2.60;;;;;;;;;;5050729;28;20441;-67
2022/06/25 06:48:43;;;;;;;6.65;3.05;;;;;;;;;;5063445;28;20048;-67
2022/06/25 06:51:10;;;;;;;5.60;2.70;;;;;;;;;;5053411;28;20033;-67
2022/06/25 06:53:38;;;;;;;8.75;2.83;;;;;;;;;;5053661;28;20059;-67
2022/06/25 06:56:05;;;;;;;6.53;3.00;;;;;;;;;;5054386;28;20064;-68
2022/06/25 06:58:33;;;;;;;6.10;2.85;;;;;;;;;;5051505;28;20360;-67
2022/06/25 07:01:00;;;;;;;5.78;2.45;;;;;;;;;;5051539;28;20037;-67
2022/06/25 07:03:28;;;;;;;10.82;2.83;;;;;;;;;;5051859;28;20044;-67
2022/06/25 07:05:56;;;;;;;6.68;2.50;;;;;;;;;;5067024;28;20037;-66
2022/06/25 07:08:23;;;;;;;4.60;2.30;;;;;;;;;;5023854;28;20055;-66
2022/06/25 07:10:51;;;;;;;5.35;2.72;;;;;;;;;;5037802;28;20041;-66
2022/06/25 07:13:19;;;;;;;6.82;2.70;;;;;;;;;;5049309;28;20102;-67
2022/06/25 07:15:46;;;;;;;9.32;2.83;;;;;;;;;;5057204;28;20463;-66
2022/06/25 07:18:13;;;;;;;8.45;2.95;;;;;;;;;;5055791;28;20033;-66
2022/06/25 07:20:41;;;;;;;5.90;2.58;;;;;;;;;;5055419;28;20052;-67
2022/06/25 07:23:09;;;;;;;6.70;2.40;;;;;;;;;;5055475;28;20443;-66
2022/06/25 07:25:36;;;;;;;4.60;2.30;;;;;;;;;;5055087;28;20132;-66
2022/06/25 07:28:04;;;;;;;2.72;2.22;;;;;;;;;;5055207;28;20483;-67
2022/06/25 07:30:31;;;;;;;7.22;2.70;;;;;;;;;;5055335;28;20123;-67
2022/06/25 07:32:59;;;;;;;3.60;2.40;;;;;;;;;;5037315;28;20041;-67
2022/06/25 07:35:26;;;;;;;7.35;2.50;;;;;;;;;;5036456;28;20041;-66
2022/06/25 07:37:54;;;;;;;7.22;2.53;;;;;;;;;;5054973;28;20375;-66
2022/06/25 07:40:28;;;;;;;5.82;2.33;;;;;;;;;;5071265;28;20049;-66
2022/06/25 07:42:56;;;;;;;4.65;2.22;;;;;;;;;;5066269;28;20048;-66
2022/06/25 07:45:23;;;;;;;2.38;2.10;;;;;;;;;;5054683;28;20071;-66
2022/06/25 07:47:51;;;;;;;5.20;2.35;;;;;;;;;;5037356;28;20045;-65
2022/06/25 07:53:05;;;;;;;4.25;2.47;;;;;;;;;;5042885;28;20477;-65
2022/06/25 07:55:32;;;;;;;5.05;2.40;;;;;;;;;;5054686;28;20107;-67
2022/06/25 07:58:00;;;;;;;2.97;2.15;;;;;;;;;;5054727;28;20068;-66
2022/06/25 08:00:27;;;;;;;3.00;1.95;;;;;;;;;;5054718;28;20052;-66
2022/06/25 08:02:55;;;;;;;3.28;2.28;;;;;;;;;;5054380;28;20529;-71
2022/06/25 08:05:22;;;;;;;3.88;2.00;;;;;;;;;;5038371;28;20041;-64
2022/06/25 08:07:50;;;;;;;4.32;1.90;;;;;;;;;;5066734;28;20072;-62
2022/06/25 08:10:17;;;;;;;3.67;2.00;;;;;;;;;;5054821;28;20041;-62
2022/06/25 08:12:45;;;;;;;5.10;2.20;;;;;;;;;;5040505;28;20067;-62
2022/06/25 08:15:12;;;;;;;3.47;2.47;;;;;;;;;;5053936;28;20073;-62
2022/06/25 08:17:41;;;;;;;5.10;2.50;;;;;;;;;;5054074;28;20102;-62
2022/06/25 08:20:09;;;;;;;7.90;2.38;;;;;;;;;;5054355;28;20095;-64
2022/06/25 08:22:36;;;;;;;6.53;2.40;;;;;;;;;;5053845;28;20044;-64
2022/06/25 08:25:04;;;;;;;4.15;2.38;;;;;;;;;;5054197;28;20507;-63
2022/06/25 08:27:32;;;;;;;5.47;2.45;;;;;;;;;;5054379;28;20060;-63
2022/06/25 08:30:00;;;;;;;7.40;2.22;;;;;;;;;;5034929;28;20036;-63
2022/06/25 08:32:28;;;;;;;6.55;2.20;;;;;;;;;;5052882;28;20392;-63
2022/06/25 08:34:55;;;;;;;6.95;2.17;;;;;;;;;;5059012;28;20045;-63
2022/06/25 08:37:23;;;;;;;4.35;2.78;;;;;;;;;;5060476;28;20047;-63
2022/06/25 08:39:50;;;;;;;8.93;3.42;;;;;;;;;;5053062;28;20057;-63
2022/06/25 08:42:18;;;;;;;4.85;2.17;;;;;;;;;;5053162;28;20463;-63
2022/06/25 08:44:45;;;;;;;6.28;2.30;;;;;;;;;;5053654;28;20033;-63
2022/06/25 08:47:13;;;;;;;6.30;2.50;;;;;;;;;;5053336;28;20041;-63
2022/06/25 08:49:41;;;;;;;3.38;2.35;;;;;;;;;;5053578;28;20070;-63
2022/06/25 08:52:10;;;;;;;8.05;3.08;;;;;;;;;;5053348;28;20033;-63
2022/06/25 08:54:37;;;;;;;5.25;2.47;;;;;;;;;;5053497;28;20048;-62
2022/06/25 08:57:05;;;;;;;3.97;2.40;;;;;;;;;;5059595;28;20127;-62
2022/06/25 08:59:34;;;;;;;4.38;2.22;;;;;;;;;;5052788;28;20043;-62
2022/06/25 09:02:01;;;;;;;7.75;2.50;;;;;;;;;;5053157;28;20044;-62
2022/06/25 09:04:29;;;;;;;7.25;2.50;;;;;;;;;;5053260;28;20049;-63
2022/06/25 09:07:16;;;;;;;4.97;2.30;;;;;;;;;;5053166;28;20095;-62
2022/06/25 09:09:47;;;;;;;9.93;4.15;;;;;;;;;;5057307;28;20075;-62
2022/06/25 09:12:15;;;;;;;4.57;2.35;;;;;;;;;;5062148;28;20128;-63
2022/06/25 09:14:43;;;;;;;15.98;12.48;;;;;;;;;;5053017;28;20045;-64
2022/06/25 09:17:14;;;;;;;3.50;2.85;;;;;;;;;;5052193;28;20175;-64
2022/06/25 09:19:43;;;;;;;8.38;5.75;;;;;;;;;;5055343;28;20041;-62
2022/06/25 09:22:10;;;;;;;6.18;3.70;;;;;;;;;;5051401;28;20033;-64
2022/06/25 09:24:44;;;;;;;7.97;2.85;;;;;;;;;;5031635;28;20603;-61
2022/06/25 09:27:12;;;;;;;10.98;6.95;;;;;;;;;;5052514;28;20045;-64
2022/06/25 09:29:42;;;;;;;17.60;13.73;;;;;;;;;;5052336;28;20041;-62
2022/06/25 09:32:10;;;;;;;10.95;6.18;;;;;;;;;;5052917;28;20045;-62
2022/06/25 09:34:39;;;;;;;5.63;2.70;;;;;;;;;;5052524;28;20056;-63
2022/06/25 09:37:20;;;;;;;5.00;3.78;;;;;;;;;;5052914;28;20091;-63
2022/06/25 09:39:48;;;;;;;6.18;3.72;;;;;;;;;;5063848;28;20056;-63
2022/06/25 09:42:23;;;;;;;19.73;16.88;;;;;;;;;;5055049;28;20039;-62
2022/06/25 09:44:58;;;;;;;45.10;37.85;;;;;;;;;;5052797;28;20102;-62
2022/06/25 09:47:26;;;;;;;10.85;7.85;;;;;;;;;;5055849;28;20037;-62
2022/06/25 09:50:06;;;;;;;8.80;6.03;;;;;;;;;;5052325;28;20045;-62
2022/06/25 09:52:35;;;;;;;14.77;9.07;;;;;;;;;;5022914;28;20095;-62
2022/06/25 09:55:04;;;;;;;22.02;13.13;;;;;;;;;;5052528;28;20047;-62
2022/06/25 09:57:32;;;;;;;15.30;8.52;;;;;;;;;;5052571;28;20041;-62
2022/06/25 10:00:01;;;;;;;14.70;6.30;;;;;;;;;;5052367;28;20368;-62
2022/06/25 10:02:36;;;;;;;8.13;3.45;;;;;;;;;;5046255;28;20037;-62
2022/06/25 10:05:04;;;;;;;6.80;4.35;;;;;;;;;;5052100;28;20083;-62
2022/06/25 10:10:20;;;;;;;5.60;2.90;;;;;;;;;;5037315;28;20391;-62
2022/06/25 10:12:48;;;;;;;5.45;2.75;;;;;;;;;;5045705;28;20052;-62
2022/06/25 10:15:17;;;;;;;6.80;3.95;;;;;;;;;;5057176;28;20123;-62
2022/06/25 10:17:46;;;;;;;7.13;2.80;;;;;;;;;;5050182;28;20049;-63
2022/06/25 10:20:14;;;;;;;16.33;7.60;;;;;;;;;;5051766;28;20037;-62
2022/06/25 10:22:43;;;;;;;9.18;3.70;;;;;;;;;;5041944;28;20044;-63
2022/06/25 10:25:12;;;;;;;9.85;3.47;;;;;;;;;;5051820;28;20048;-62
2022/06/25 10:27:43;;;;;;;12.65;2.90;;;;;;;;;;5052071;28;20040;-63
2022/06/25 10:30:12;;;;;;;8.00;3.00;;;;;;;;;;5052072;28;20449;-63
2022/06/25 10:32:47;;;;;;;7.05;3.80;;;;;;;;;;5051691;28;20041;-63
2022/06/25 10:35:34;;;;;;;8.48;3.15;;;;;;;;;;5052021;28;20051;-63
2022/06/25 10:38:09;;;;;;;6.22;2.55;;;;;;;;;;5042191;28;20069;-63
2022/06/25 10:40:52;;;;;;;5.63;3.08;;;;;;;;;;5068009;28;20045;-63
2022/06/25 10:43:35;;;;;;;6.15;2.63;;;;;;;;;;5055941;28;20076;-63
2022/06/25 10:46:19;;;;;;;5.55;2.70;;;;;;;;;;5030478;28;20079;-62
2022/06/25 10:48:51;;;;;;;5.18;3.10;;;;;;;;;;5055273;28;20037;-64
2022/06/25 10:51:30;;;;;;;7.53;3.15;;;;;;;;;;5054620;28;20037;-64
2022/06/25 10:53:58;;;;;;;7.47;3.05;;;;;;;;;;5054509;28;20126;-64
2022/06/25 10:56:26;;;;;;;4.50;3.10;;;;;;;;;;5039226;28;20128;-64
2022/06/25 10:58:55;;;;;;;3.70;2.75;;;;;;;;;;5042808;28;20123;-64
2022/06/25 11:01:24;;;;;;;5.30;3.05;;;;;;;;;;5035048;28;20029;-64
2022/06/25 11:03:56;;;;;;;4.40;2.80;;;;;;;;;;5047734;28;20124;-63
2022/06/25 11:06:28;;;;;;;6.70;3.00;;;;;;;;;;5055614;28;20136;-64
2022/06/25 11:09:06;;;;;;;6.88;2.83;;;;;;;;;;5055816;28;20083;-64
2022/06/25 11:11:34;;;;;;;7.45;3.00;;;;;;;;;;5055519;28;20044;-64
2022/06/25 11:14:03;;;;;;;8.68;3.67;;;;;;;;;;5055317;28;20576;-64
2022/06/25 11:16:31;;;;;;;5.45;3.00;;;;;;;;;;5055656;28;20033;-64
2022/06/25 11:19:00;;;;;;;7.28;2.95;;;;;;;;;;5055279;28;20041;-64
2022/06/25 11:21:27;;;;;;;7.20;3.00;;;;;;;;;;5055718;28;20040;-64
2022/06/25 11:24:07;;;;;;;8.35;3.20;;;;;;;;;;5055201;28;20495;-64
2022/06/25 11:29:26;;;;;;;7.70;3.28;;;;;;;;;;5054442;28;20033;-64
2022/06/25 11:31:54;;;;;;;6.07;3.20;;;;;;;;;;5053900;28;20033;-65
2022/06/25 11:34:24;;;;;;;5.75;3.40;;;;;;;;;;5054485;28;20049;-65
2022/06/25 11:36:59;;;;;;;7.10;3.35;;;;;;;;;;5054839;28;20128;-65
2022/06/25 11:39:28;;;;;;;6.82;3.25;;;;;;;;;;5054458;28;20060;-65
2022/06/25 11:41:55;;;;;;;5.93;2.83;;;;;;;;;;5037124;28;20482;-65
2022/06/25 11:44:23;;;;;;;8.60;2.70;;;;;;;;;;5054566;28;20502;-65
2022/06/25 11:46:52;;;;;;;5.85;2.75;;;;;;;;;;5052498;28;20367;-65
2022/06/25 11:49:22;;;;;;;14.02;11.30;;;;;;;;;;5035758;28;20555;-66
2022/06/25 11:51:51;;;;;;;11.90;6.68;;;;;;;;;;5053373;28;20036;-66
2022/06/25 11:54:24;;;;;;;5.85;3.05;;;;;;;;;;5036684;28;20052;-66
2022/06/25 11:56:53;;;;;;;5.35;3.53;;;;;;;;;;5054203;28;20029;-66
2022/06/25 11:59:24;;;;;;;10.52;3.70;;;;;;;;;;5054424;28;20052;-65
2022/06/25 12:01:51;;;;;;;8.27;4.25;;;;;;;;;;5048504;28;20045;-66
2022/06/25 12:04:19;;;;;;;10.30;4.95;;;;;;;;;;5040466;28;20037;-64
2022/06/25 12:06:48;;;;;;;8.40;4.55;;;;;;;;;;5042743;28;20411;-63
2022/06/25 12:09:16;;;;;;;7.88;4.20;;;;;;;;;;5036803;28;20415;-64
2022/06/25 12:11:51;;;;;;;4.85;2.92;;;;;;;;;;5054060;28;20072;-67
2022/06/25 12:14:20;;;;;;;5.45;3.10;;;;;;;;;;5053643;28;20115;-65
2022/06/25 12:16:48;;;;;;;5.40;2.90;;;;;;;;;;5027387;28;20041;-64
2022/06/25 12:19:16;;;;;;;4.55;2.60;;;;;;;;;;5052169;28;20037;-64
2022/06/25 12:21:44;;;;;;;5.78;3.20;;;;;;;;;;5054057;28;20048;-64
2022/06/25 12:24:16;;;;;;;4.63;3.40;;;;;;;;;;5053686;28;20060;-66
2022/06/25 12:26:51;;;;;;;6.28;3.75;;;;;;;;;;5044030;28;20445;-64
2022/06/25 12:29:20;;;;;;;9.95;5.15;;;;;;;;;;5053734;28;20047;-64
2022/06/25 12:31:53;;;;;;;8.00;3.67;;;;;;;;;;5043399;28;20034;-65
2022/06/25 12:34:21;;;;;;;5.03;2.90;;;;;;;;;;5053436;28;20502;-63
2022/06/25 12:36:49;;;;;;;6.78;4.82;;;;;;;;;;5044155;28;20051;-64
2022/06/25 12:39:31;;;;;;;4.97;3.35;;;;;;;;;;5053351;28;20546;-65
2022/06/25 12:42:03;;;;;;;6.80;3.75;;;;;;;;;;5022591;28;20049;-64
2022/06/25 12:44:34;;;;;;;7.00;4.50;;;;;;;;;;5048549;28;20045;-64
2022/06/25 12:47:07;;;;;;;6.55;2.97;;;;;;;;;;5053259;28;20045;-64
2022/06/25 12:49:44;;;;;;;4.90;2.92;;;;;;;;;;5052935;28;20115;-64
2022/06/25 12:52:12;;;;;;;6.32;3.10;;;;;;;;;;5053321;28;20048;-63
2022/06/25 12:54:43;;;;;;;7.07;3.17;;;;;;;;;;5053329;28;20052;-63
2022/06/25 12:57:17;;;;;;;4.65;3.10;;;;;;;;;;5053124;28;20037;-65
2022/06/25 12:59:45;;;;;;;6.07;3.47;;;;;;;;;;5053204;28;20049;-66
2022/06/25 13:02:13;;;;;;;3.72;2.60;;;;;;;;;;5052279;28;20384;-64
2022/06/25 13:04:42;;;;;;;7.03;2.72;;;;;;;;;;5052953;28;20061;-65
2022/06/25 13:07:14;;;;;;;4.53;2.90;;;;;;;;;;5052766;28;20065;-64
2022/06/25 13:09:42;;;;;;;8.70;3.13;;;;;;;;;;5051134;28;20116;-64
2022/06/25 13:12:24;;;;;;;5.40;2.47;;;;;;;;;;5033773;28;20128;-64
2022/06/25 13:14:51;;;;;;;5.85;3.08;;;;;;;;;;5051175;28;20041;-65
2022/06/25 13:17:19;;;;;;;8.00;3.25;;;;;;;;;;5052489;28;20128;-68
2022/06/25 13:19:47;;;;;;;7.63;2.70;;;;;;;;;;5053130;28;20048;-63
2022/06/25 13:22:14;;;;;;;4.63;2.88;;;;;;;;;;5052603;28;20037;-63
2022/06/25 13:24:42;;;;;;;4.20;2.75;;;;;;;;;;5053078;28;20048;-63
2022/06/25 13:27:09;;;;;;;6.90;3.25;;;;;;;;;;5053071;28;20048;-65
2022/06/25 13:29:37;;;;;;;5.30;2.70;;;;;;;;;;5048967;28;20046;-64
2022/06/25 13:32:05;;;;;;;4.68;3.22;;;;;;;;;;5036282;28;20372;-64
2022/06/25 13:34:32;;;;;;;10.18;3.10;;;;;;;;;;5032985;28;20124;-63
2022/06/25 13:37:00;;;;;;;3.97;2.70;;;;;;;;;;5015433;28;20406;-64
2022/06/25 13:39:27;;;;;;;3.90;3.00;;;;;;;;;;5032916;28;20111;-64
2022/06/25 13:41:55;;;;;;;7.40;2.72;;;;;;;;;;5014468;28;20124;-65
2022/06/25 13:44:23;;;;;;;5.75;3.08;;;;;;;;;;5050314;28;20060;-64
2022/06/25 13:46:51;;;;;;;7.80;3.20;;;;;;;;;;5052785;28;20052;-63
2022/06/25 13:49:18;;;;;;;6.70;3.33;;;;;;;;;;5052064;28;20047;-65
2022/06/25 13:51:48;;;;;;;8.45;5.90;;;;;;;;;;5050941;28;20045;-64
2022/06/25 13:54:15;;;;;;;5.32;3.10;;;;;;;;;;5050026;28;20049;-64
2022/06/25 13:56:43;;;;;;;5.05;3.22;;;;;;;;;;5051356;28;20040;-64
2022/06/25 13:59:10;;;;;;;5.97;3.03;;;;;;;;;;5052521;28;20120;-64
2022/06/25 14:01:38;;;;;;;7.88;3.78;;;;;;;;;;5052794;28;20403;-64
2022/06/25 14:04:05;;;;;;;6.35;3.88;;;;;;;;;;5034750;28;20144;-64
2022/06/25 14:06:36;;;;;;;5.97;3.30;;;;;;;;;;5035022;28;20043;-65
2022/06/25 14:09:04;;;;;;;7.95;3.65;;;;;;;;;;5052691;28;20033;-65
2022/06/25 14:11:31;;;;;;;4.00;3.08;;;;;;;;;;5053014;28;20041;-64
2022/06/25 14:13:59;;;;;;;6.45;3.17;;;;;;;;;;5052280;28;20138;-64
2022/06/25 14:16:26;;;;;;;9.45;3.45;;;;;;;;;;5050814;28;20037;-64
2022/06/25 14:18:54;;;;;;;7.97;3.50;;;;;;;;;;5050566;28;20040;-64
2022/06/25 14:21:22;;;;;;;7.10;3.90;;;;;;;;;;5050372;28;20040;-64
2022/06/25 14:23:55;;;;;;;5.97;3.33;;;;;;;;;;5050825;28;20033;-64
2022/06/25 14:26:23;;;;;;;9.65;3.70;;;;;;;;;;5050627;28;20040;-64
2022/06/25 14:28:50;;;;;;;6.38;3.50;;;;;;;;;;5050274;28;20372;-64
2022/06/25 14:31:18;;;;;;;8.18;3.90;;;;;;;;;;5052187;28;20047;-64
2022/06/25 14:33:46;;;;;;;7.85;3.47;;;;;;;;;;5052333;28;20495;-64
2022/06/25 14:44:31;;;;;;;8.50;4.00;;;;;;;;;;5051956;28;20045;-64
2022/06/25 14:46:59;;;;;;;9.40;4.90;;;;;;;;;;5034281;28;20099;-64
2022/06/25 14:49:26;;;;;;;7.93;4.22;;;;;;;;;;5052368;28;20049;-64
2022/06/25 14:51:54;;;;;;;11.15;5.90;;;;;;;;;;5052019;28;20518;-64
2022/06/25 14:54:21;;;;;;;6.38;3.85;;;;;;;;;;5051763;28;20053;-64
2022/06/25 14:56:49;;;;;;;5.78;4.07;;;;;;;;;;5051884;28;20037;-64
2022/06/25 14:59:18;;;;;;;10.85;6.97;;;;;;;;;;5034297;28;20053;-64
2022/06/25 15:01:45;;;;;;;12.38;8.85;;;;;;;;;;5051884;28;20045;-64
2022/06/25 15:04:13;;;;;;;9.48;7.43;;;;;;;;;;5051920;28;20491;-64
2022/06/25 15:06:40;;;;;;;11.15;9.77;;;;;;;;;;5052006;28;20052;-64
2022/06/25 15:09:08;;;;;;;10.60;7.13;;;;;;;;;;5034486;28;20037;-64
2022/06/25 15:11:35;;;;;;;5.10;3.75;;;;;;;;;;5051992;28;20049;-64
2022/06/25 15:14:03;;;;;;;7.93;4.13;;;;;;;;;;5051919;28;20367;-63
2022/06/25 15:16:31;;;;;;;13.73;5.75;;;;;;;;;;5052189;28;20116;-64
2022/06/25 15:18:58;;;;;;;5.47;3.80;;;;;;;;;;5051893;28;20053;-63